Airfield :
LOGIN :

Register | Disclaimer

   EN    FR    IT 

 










Legend :    VFR   Marginal VFR   IFR   Intensive IFR   Very Intensive IFR
Visi :
Ceiling :
>= 8 km
>= 3000ft
5 to 8 km
1000 to 3000 ft
1500m to 5 km
500 to 1000 ft
800 to 1500m
200 to 500 ft
< 800m
< 200 ft
Symbols :   Thunderstorms  Fog  Heavy snow  Heavy precipitations  Wind > 20 kt
SIGMETs :     Misc.  Thunderstorms  Icing  Turbulence  Mountain Waves  Volcanic Ashes







- Airport Elevation : 231 ft
- IATA code : WTN


EGXW - RAF Waddington

CURRENT METAR :
  • 211750Z 26016KT 9999 FEW023CB 11/07 Q1009 BLU

EXPIRED METARs :
  • 211650Z 26015KT 9999 FEW023CB 11/08 Q1008 BLU TEMPO 6000 SHRA SCT022CB WHT
  • 211550Z 26017G27KT 9999 FEW023CB BKN100 12/08 Q1007 BLU

TAF TAF EGXW
Valid from the 21 at 18:00 until the 22 at 12:00 UTC


211631Z 2118/2212 25020G30KT 9999 SCT025
BECMG 2118/2120 27014KT
No reported NOTAMs for that airfield.
3 SIGMETs reported for the London FIR (EGTT) :
 
Severe turbulence
EGTT SIGMET 09 VALID 211900/212300 EGRR
EGTT LONDON FIR SEV TURB FCST WI N5220 W00530 - N5234 W00530 - N5153 W00255 - N4955 W00341 - N5102 W00755 - N5220 W00530 FL200/370 MOV NE 20KT NC=
Severe turbulence
EGTT SIGMET 08 VALID 211600/211900 EGRR
EGTT LONDON FIR SEV TURB FCST WI N4926 W00456 - N4856 W00731 - N4850 W00800 - N5100 W00800 - N5128 W00708 - N4953 W00238 - N4926 W00456 FL200/370 MOV ENE 20KT NC=
Severe turbulence
EGTT SIGMET 07 VALID 211500/211900 EGRR
EGTT LONDON FIR SEV TURB FCST WI N5419 W00347 - N5310 E00002 - N5155 W00013 - N5222 W00344 - N5419 W00347 SFC/FL060 MOV ESE 35KT WKN=



MET'MAP, your aeronautical weather chart ! - Copyright ORBIFLY December 2007 - Disclaimer

ORBIFLY MET'MAP TEAM :

Programming & Development : Alexandra Zaïnal
Concept & Development : Baudouin d'Aumeries
Co-Development & Prog : Marc-Olivier Méhu
Technical & hardware support : Manuel Goepfert

Contact : metmap@orbifly.com




SOURCES & CREDITS :

   NOAA